Time;durP1;ratioP1;P1;durP2;ratioP2;P2;SDS_P1;SDS_P2;PMS_P1;PMS_P2;Temp;Humidity;BMP_temperature;BMP_pressure;BME280_temperature;BME280_humidity;BME280_pressure;Samples;Min_cycle;Max_cycle;Signal;HPM_P1;HPM_P2
2022/04/24 00:01:09;;;;;;;10.57;9.53;;;9.50;99.90;;;-141.84;57.97;17607.31;5030145;28;20312;-60
2022/04/24 00:03:37;;;;;;;10.30;9.30;;;9.50;99.90;;;-141.84;58.30;17639.81;5030002;28;20206;-60
2022/04/24 00:06:05;;;;;;;10.13;9.10;;;9.50;99.90;;;-141.84;58.15;17625.59;5030783;28;20285;-61
2022/04/24 00:08:33;;;;;;;10.40;9.23;;;9.40;99.90;;;-141.84;58.49;17627.63;5029697;28;20308;-62
2022/04/24 00:11:01;;;;;;;11.30;9.20;;;9.40;99.90;;;-141.84;58.39;17631.69;5024468;28;20225;-61
2022/04/24 00:13:37;;;;;;;10.33;9.37;;;9.40;99.90;;;-141.84;58.62;17639.81;5011027;28;20230;-60
2022/04/24 00:16:06;;;;;;;11.40;10.30;;;9.40;99.90;;;-141.84;58.99;17611.38;5021557;28;20226;-61
2022/04/24 00:18:37;;;;;;;10.00;9.10;;;9.30;99.90;;;-141.84;59.04;17582.94;5029647;28;20277;-61
2022/04/24 00:21:06;;;;;;;10.77;9.67;;;9.30;99.90;;;-141.84;59.49;17576.84;5027130;28;20198;-59
2022/04/24 00:23:34;;;;;;;12.33;11.07;;;9.20;99.90;;;-141.84;58.86;17611.38;5026773;28;20678;-59
2022/04/24 00:26:02;;;;;;;12.13;10.50;;;9.20;99.90;;;-141.84;59.45;17611.38;5029530;28;20305;-60
2022/04/24 00:28:32;;;;;;;12.03;10.23;;;9.20;99.90;;;-141.84;59.40;17607.31;5029477;28;20232;-59
2022/04/24 00:31:00;;;;;;;11.03;10.00;;;9.20;99.90;;;-141.84;59.72;17637.78;5029744;28;20221;-61
2022/04/24 00:33:28;;;;;;;11.57;10.37;;;9.10;99.90;;;-141.84;59.88;17587.00;5029453;28;20633;-59
2022/04/24 00:35:56;;;;;;;11.30;10.20;;;9.00;99.90;;;-141.84;60.51;17603.25;5030445;28;20233;-61
2022/04/24 00:38:24;;;;;;;11.97;10.77;;;8.90;99.90;;;-141.84;60.63;17572.78;5029317;28;20237;-61
2022/04/24 00:40:54;;;;;;;11.30;10.20;;;9.00;99.90;;;-141.84;61.50;17558.56;5029522;28;20234;-60
2022/04/24 00:43:22;;;;;;;11.50;10.37;;;8.90;99.90;;;-141.84;62.06;17562.63;5029469;28;20305;-60
2022/04/24 00:46:08;;;;;;;12.13;10.93;;;8.80;99.90;;;-141.84;62.27;17536.22;5016045;28;20528;-60
2022/04/24 00:48:36;;;;;;;13.40;12.03;;;8.70;99.90;;;-141.84;62.25;17546.38;5026855;28;20727;-62
2022/04/24 00:51:13;;;;;;;13.53;12.23;;;8.70;99.90;;;-141.84;63.19;17538.25;5030151;28;20217;-61
2022/04/24 00:53:41;;;;;;;14.10;12.60;;;8.60;99.90;;;-141.84;62.82;17513.88;5029185;28;20620;-61
2022/04/24 00:56:09;;;;;;;13.87;12.47;;;8.60;99.90;;;-141.84;63.07;17524.03;5029450;28;20228;-60
2022/04/24 00:58:37;;;;;;;13.93;12.53;;;8.60;99.90;;;-141.84;63.76;17505.75;5026517;28;20305;-60
2022/04/24 01:01:06;;;;;;;14.20;12.80;;;8.40;99.90;;;-141.84;63.88;17509.81;5029580;28;20234;-60
2022/04/24 01:03:35;;;;;;;13.97;12.47;;;8.40;99.90;;;-141.84;64.25;17519.97;5029013;28;20701;-60
2022/04/24 01:06:03;;;;;;;14.50;13.10;;;8.40;99.90;;;-141.84;64.62;17479.34;5029938;28;20294;-60
2022/04/24 01:08:34;;;;;;;14.23;12.73;;;8.30;99.90;;;-141.84;64.64;17491.53;5025614;28;20313;-61
2022/04/24 01:11:02;;;;;;;13.43;12.13;;;8.30;99.90;;;-141.84;64.30;17505.75;5027404;28;20250;-61
2022/04/24 01:13:30;;;;;;;13.83;12.40;;;8.30;99.90;;;-141.84;64.91;17477.31;5010063;28;20264;-60
2022/04/24 01:15:58;;;;;;;14.27;12.87;;;8.30;99.90;;;-141.84;65.42;17487.47;5019772;28;20301;-61
2022/04/24 01:18:29;;;;;;;13.23;11.93;;;8.20;99.90;;;-141.84;65.48;17489.50;5028787;28;20727;-62
2022/04/24 01:21:07;;;;;;;13.33;12.00;;;8.10;99.90;;;-141.84;64.60;17491.53;5029596;28;20257;-60
2022/04/24 01:23:38;;;;;;;12.87;11.57;;;8.20;99.90;;;-141.84;65.19;17469.19;5028820;28;20296;-60
2022/04/24 01:26:06;;;;;;;12.63;11.33;;;8.20;99.90;;;-141.84;65.28;17471.22;5029055;28;20336;-61
2022/04/24 01:28:34;;;;;;;12.10;10.90;;;8.10;99.90;;;-141.84;65.53;17485.44;5028766;28;20317;-60
2022/04/24 01:31:02;;;;;;;12.50;11.30;;;8.10;99.90;;;-141.84;66.27;17481.38;5029378;28;20232;-60
2022/04/24 01:33:30;;;;;;;12.37;11.07;;;8.10;99.90;;;-141.84;66.47;17457.03;5028930;28;20274;-60
2022/04/24 01:36:00;;;;;;;12.80;10.90;;;8.00;99.90;;;-141.84;66.26;17473.25;5029742;28;20208;-61
2022/04/24 01:38:28;;;;;;;12.50;11.20;;;8.00;99.90;;;-141.84;66.34;17434.69;5028690;28;20236;-60
2022/04/24 01:40:56;;;;;;;13.13;11.00;;;7.90;99.90;;;-141.84;67.00;17410.31;5028954;28;20425;-61
2022/04/24 01:43:24;;;;;;;12.90;11.03;;;7.90;99.90;;;-141.84;67.00;17406.25;5029058;28;20256;-62
2022/04/24 01:45:52;;;;;;;12.30;11.00;;;7.90;99.90;;;-141.84;67.24;17422.50;5028943;28;20660;-61
2022/04/24 01:48:20;;;;;;;11.90;10.53;;;7.80;99.90;;;-141.84;67.05;17450.94;5029325;28;20207;-61
2022/04/24 01:50:48;;;;;;;12.33;11.13;;;7.80;99.90;;;-141.84;67.74;17420.47;5029258;28;20228;-61
2022/04/24 01:53:17;;;;;;;12.63;11.33;;;7.70;99.90;;;-141.84;68.04;17428.59;5028794;28;20313;-60
2022/04/24 01:55:45;;;;;;;12.63;11.30;;;7.70;99.90;;;-141.84;67.35;17416.41;5028806;28;20237;-59
2022/04/24 01:58:13;;;;;;;11.93;10.73;;;7.80;99.90;;;-141.84;67.89;17457.03;5032017;28;20679;-59
2022/04/24 02:00:41;;;;;;;12.03;10.73;;;7.70;99.90;;;-141.84;68.45;17416.41;5029616;28;20317;-60
2022/04/24 02:03:09;;;;;;;14.13;11.40;;;7.70;99.90;;;-141.84;68.78;17420.47;5016903;28;20300;-60
2022/04/24 02:05:38;;;;;;;11.50;10.33;;;7.60;99.90;;;-141.84;68.78;17414.38;5019296;28;20261;-61
2022/04/24 02:08:06;;;;;;;12.17;10.90;;;7.60;99.90;;;-141.84;68.68;17420.47;5015731;28;20321;-60
2022/04/24 02:10:36;;;;;;;11.57;10.47;;;7.50;99.90;;;-141.84;68.90;17414.38;5017351;28;20217;-60
2022/04/24 02:13:04;;;;;;;11.67;10.57;;;7.50;99.90;;;-141.84;68.58;17400.16;5017275;28;20218;-60
2022/04/24 02:15:33;;;;;;;13.50;10.63;;;7.60;99.90;;;-141.84;68.79;17375.78;5016158;28;20765;-60
2022/04/24 02:18:01;;;;;;;11.37;10.27;;;7.50;99.90;;;-141.84;68.52;17420.47;5016801;28;20680;-59
2022/04/24 02:20:29;;;;;;;12.43;11.13;;;7.50;99.90;;;-141.84;68.64;17400.16;5022977;28;20657;-61
2022/04/24 02:22:58;;;;;;;12.03;10.77;;;7.50;99.90;;;-141.84;69.01;17400.16;5031819;28;20241;-59
2022/04/24 02:25:28;;;;;;;12.20;11.00;;;7.50;99.90;;;-141.84;69.62;17398.13;5025916;28;20723;-61
2022/04/24 02:27:58;;;;;;;12.10;10.93;;;7.50;99.90;;;-141.84;68.82;17412.34;5017216;28;20755;-61
2022/04/24 02:30:29;;;;;;;12.17;10.87;;;7.50;99.90;;;-141.84;69.36;17428.59;5016874;28;20691;-60
2022/04/24 02:32:58;;;;;;;12.00;10.80;;;7.50;99.90;;;-141.84;70.10;17385.94;5017668;28;20288;-61
2022/04/24 02:35:28;;;;;;;12.00;10.80;;;7.30;99.90;;;-141.84;70.36;17394.06;5018247;28;20240;-60
2022/04/24 02:37:57;;;;;;;11.43;10.33;;;7.40;99.90;;;-141.84;70.96;17383.91;5021034;28;20329;-60
2022/04/24 02:40:27;;;;;;;12.70;10.90;;;7.30;99.90;;;-141.84;70.11;17379.84;5016062;28;20226;-60
2022/04/24 02:42:56;;;;;;;12.70;11.50;;;7.30;99.90;;;-141.84;69.92;17396.09;5022503;28;20222;-59
2022/04/24 02:45:24;;;;;;;11.97;10.77;;;7.30;99.90;;;-141.84;70.27;17381.88;5015685;28;21096;-60
2022/04/24 02:47:52;;;;;;;13.23;10.67;;;7.40;99.90;;;-141.84;69.59;17404.22;5017840;28;20677;-63
2022/04/24 02:50:20;;;;;;;11.50;10.40;;;7.40;99.90;;;-141.84;70.04;17379.84;5018683;28;20321;-60
2022/04/24 02:52:50;;;;;;;11.87;10.67;;;7.30;99.90;;;-141.84;70.53;17381.88;5023441;28;20663;-61
2022/04/24 02:55:19;;;;;;;11.37;10.27;;;7.30;99.90;;;-141.84;69.56;17400.16;5020992;28;20744;-62
2022/04/24 02:57:48;;;;;;;13.03;11.23;;;7.30;99.90;;;-141.84;69.20;17383.91;5018754;28;20243;-63
2022/04/24 03:00:22;;;;;;;11.93;10.77;;;7.30;99.90;;;-141.84;69.28;17422.50;5023037;28;20741;-61
2022/04/24 03:02:51;;;;;;;11.73;10.50;;;7.40;99.90;;;-141.84;69.84;17400.16;5029214;28;20241;-60
2022/04/24 03:05:22;;;;;;;12.47;11.10;;;7.30;99.90;;;-141.84;70.41;17361.56;5016245;28;20712;-60
2022/04/24 03:07:51;;;;;;;12.23;11.00;;;7.30;99.90;;;-141.84;71.32;17371.72;5016876;28;20249;-60
2022/04/24 03:10:19;;;;;;;12.77;10.80;;;7.20;99.90;;;-141.84;71.17;17357.50;5025862;28;20664;-58
2022/04/24 03:12:48;;;;;;;12.07;10.83;;;7.20;99.90;;;-141.84;71.39;17339.22;5031138;28;20266;-59
2022/04/24 03:15:17;;;;;;;11.40;10.30;;;7.10;99.90;;;-141.84;71.69;17339.22;5031216;28;20740;-60
2022/04/24 03:17:45;;;;;;;12.93;11.63;;;7.10;99.90;;;-141.84;71.71;17349.38;5030807;28;20239;-59
2022/04/24 03:20:14;;;;;;;11.83;10.63;;;7.10;99.90;;;-141.84;71.52;17335.16;5030603;28;20224;-60
2022/04/24 03:22:42;;;;;;;12.00;10.67;;;7.10;99.90;;;-141.84;72.37;17351.41;5030836;28;20237;-60
2022/04/24 03:25:11;;;;;;;12.60;11.30;;;7.00;99.90;;;-141.84;70.98;17371.72;5030555;28;20599;-60
2022/04/24 03:27:40;;;;;;;11.87;10.60;;;7.10;99.90;;;-141.84;71.87;17365.63;5026987;28;20201;-59
2022/04/24 03:30:10;;;;;;;12.73;11.43;;;7.10;99.90;;;-141.84;72.15;17357.50;5017376;28;20208;-60
2022/04/24 03:32:40;;;;;;;12.47;11.17;;;7.00;99.90;;;-141.84;71.95;17379.84;5016289;28;20347;-60
2022/04/24 03:35:11;;;;;;;12.50;11.20;;;7.00;99.90;;;-141.84;72.53;17310.78;5014500;28;20697;-60
2022/04/24 03:37:41;;;;;;;12.23;10.97;;;7.00;99.90;;;-141.84;72.54;17363.59;5014460;28;20277;-60
2022/04/24 03:40:10;;;;;;;12.97;11.00;;;6.90;99.90;;;-141.84;72.49;17331.09;5017861;28;20225;-59
2022/04/24 03:42:38;;;;;;;13.43;12.10;;;6.90;99.90;;;-141.84;71.88;17351.41;5016957;28;20797;-59
2022/04/24 03:45:09;;;;;;;12.83;11.50;;;7.10;99.90;;;-141.84;72.55;17331.09;5016707;28;20484;-60
2022/04/24 03:47:37;;;;;;;13.43;12.03;;;7.10;99.90;;;-141.84;72.29;17329.06;5012180;28;20724;-59
2022/04/24 03:50:08;;;;;;;12.20;10.67;;;7.10;99.90;;;-141.84;72.41;17310.78;5015805;28;20232;-60
2022/04/24 03:52:36;;;;;;;13.13;11.80;;;7.00;99.90;;;-141.84;71.43;17316.88;5013112;28;20232;-60
2022/04/24 03:55:06;;;;;;;12.87;11.57;;;7.00;99.90;;;-141.84;72.74;17318.91;5017556;28;20233;-61
2022/04/24 03:57:34;;;;;;;12.80;11.50;;;7.00;99.90;;;-141.84;72.96;17322.97;5017372;28;20197;-57
2022/04/24 04:00:03;;;;;;;15.53;11.33;;;7.00;99.90;;;-141.84;72.34;17325.00;5021252;28;20513;-60
2022/04/24 04:02:31;;;;;;;12.67;11.37;;;6.90;99.90;;;-141.84;72.27;17341.25;5016101;28;20230;-59
2022/04/24 04:05:00;;;;;;;13.10;11.70;;;7.00;99.90;;;-141.84;72.90;17322.97;5016656;28;20227;-60
2022/04/24 04:07:30;;;;;;;12.83;11.47;;;6.90;99.90;;;-141.84;72.94;17316.88;5016326;28;20228;-61
2022/04/24 04:09:58;;;;;;;12.20;11.00;;;7.00;99.90;;;-141.84;72.70;17316.88;5014891;28;20316;-59
2022/04/24 04:12:27;;;;;;;12.57;11.27;;;7.00;99.90;;;-141.84;73.54;17300.63;5018752;28;20440;-58
2022/04/24 04:14:55;;;;;;;12.53;10.87;;;7.30;99.90;;;-141.84;73.28;17306.72;5017769;28;20194;-59
2022/04/24 04:17:23;;;;;;;12.83;11.37;;;6.90;99.90;;;-141.84;73.87;17318.91;5018910;28;20230;-60
2022/04/24 04:19:51;;;;;;;15.40;11.97;;;6.80;99.90;;;-141.84;74.20;17272.19;5016366;28;20236;-61
2022/04/24 04:22:19;;;;;;;13.10;11.70;;;6.90;99.90;;;-141.84;74.54;17290.47;5014636;28;20344;-60
2022/04/24 04:24:48;;;;;;;13.40;12.00;;;6.80;99.90;;;-141.84;75.17;17296.56;5014802;28;20230;-57
2022/04/24 04:27:16;;;;;;;12.97;11.67;;;6.80;99.90;;;-141.84;76.21;17249.84;5017519;28;20893;-61
2022/04/24 04:29:44;;;;;;;12.63;11.37;;;6.70;99.90;;;-141.84;75.09;17284.38;5017067;28;20221;-60
2022/04/24 04:32:12;;;;;;;12.90;11.30;;;6.70;99.90;;;-141.84;75.12;17290.47;5015317;28;20309;-60
2022/04/24 04:34:41;;;;;;;12.60;11.30;;;6.80;99.90;;;-141.84;74.43;17302.66;5015488;28;20225;-59
2022/04/24 04:37:09;;;;;;;12.53;11.23;;;6.80;99.90;;;-141.84;74.58;17286.41;5013973;28;20598;-60
2022/04/24 04:39:37;;;;;;;14.20;12.47;;;6.90;99.90;;;-141.84;74.33;17280.31;5014912;28;20304;-60
2022/04/24 04:42:09;;;;;;;14.43;11.37;;;6.90;99.90;;;-141.84;73.43;17325.00;5014397;28;22272;-60
2022/04/24 04:44:37;;;;;;;12.97;11.67;;;7.00;99.90;;;-141.84;73.99;17284.38;5014208;28;20671;-58
2022/04/24 04:47:07;;;;;;;13.33;11.30;;;7.00;99.90;;;-141.84;73.05;17266.09;5010735;28;20236;-59
2022/04/24 04:49:35;;;;;;;13.23;11.23;;;7.10;99.90;;;-141.84;73.24;17292.50;5017434;28;20227;-57
2022/04/24 04:52:03;;;;;;;13.67;11.87;;;7.20;99.90;;;-141.84;73.27;17290.47;5015808;28;20229;-60
2022/04/24 04:54:31;;;;;;;13.73;11.63;;;7.10;99.90;;;-141.84;72.65;17282.34;5019666;28;20296;-60
2022/04/24 04:56:59;;;;;;;12.83;11.53;;;7.20;99.90;;;-141.84;72.13;17327.03;5018686;28;20231;-62
2022/04/24 04:59:29;;;;;;;13.07;11.67;;;7.20;99.90;;;-141.84;71.96;17292.50;5012422;28;20411;-60
2022/04/24 05:01:57;;;;;;;13.77;12.20;;;7.30;99.90;;;-141.84;71.40;17322.97;5019083;28;20228;-59
2022/04/24 05:04:31;;;;;;;13.20;11.57;;;7.30;99.90;;;-141.84;71.20;17335.16;5016745;28;20247;-58
2022/04/24 05:06:59;;;;;;;13.67;11.90;;;7.40;99.90;;;-141.84;70.76;17343.28;5011613;28;20228;-58
2022/04/24 05:09:27;;;;;;;12.83;11.33;;;7.50;99.90;;;-141.84;70.89;17302.66;5017350;28;20317;-58
2022/04/24 05:11:55;;;;;;;12.83;11.53;;;7.50;99.90;;;-141.84;70.06;17322.97;5018248;28;20618;-59
2022/04/24 05:14:23;;;;;;;12.40;11.17;;;7.50;99.90;;;-141.84;69.34;17327.03;5013406;28;20218;-61
2022/04/24 05:16:52;;;;;;;14.67;11.77;;;7.70;99.90;;;-141.84;69.87;17355.47;5016831;28;20647;-59
2022/04/24 05:19:20;;;;;;;13.53;11.30;;;7.70;99.90;;;-141.84;70.27;17355.47;5012218;28;20728;-60
2022/04/24 05:21:48;;;;;;;13.73;11.63;;;7.70;99.90;;;-141.84;69.43;17341.25;5019794;28;20327;-61
2022/04/24 05:24:16;;;;;;;12.60;11.27;;;7.80;99.90;;;-141.84;69.44;17355.47;5012085;28;20554;-60
2022/04/24 05:26:44;;;;;;;12.77;11.17;;;7.90;99.90;;;-141.84;70.05;17308.75;5011877;28;20232;-59
2022/04/24 05:29:13;;;;;;;12.37;11.07;;;7.90;99.90;;;-141.84;69.59;17335.16;5012110;28;20311;-60
2022/04/24 05:31:41;;;;;;;12.53;11.23;;;7.90;99.90;;;-141.84;69.75;17325.00;5017748;28;20245;-59
2022/04/24 05:34:10;;;;;;;12.47;11.17;;;7.90;99.90;;;-141.84;69.03;17329.06;5023561;28;20531;-61
2022/04/24 05:36:38;;;;;;;13.40;12.00;;;8.00;99.90;;;-141.84;69.93;17335.16;5019227;28;20206;-61
2022/04/24 05:39:06;;;;;;;13.27;11.60;;;7.90;99.90;;;-141.84;69.20;17329.06;5021805;28;20212;-60
2022/04/24 05:41:34;;;;;;;12.73;11.43;;;8.00;99.90;;;-141.84;69.05;17325.00;5018788;28;20321;-58
2022/04/24 05:44:02;;;;;;;13.03;11.67;;;8.00;99.90;;;-141.84;68.66;17379.84;5021677;28;20303;-60
2022/04/24 05:46:30;;;;;;;12.77;11.47;;;8.20;99.90;;;-141.84;67.05;17371.72;5024039;28;20226;-59
2022/04/24 05:49:00;;;;;;;15.47;12.53;;;8.40;99.90;;;-141.84;67.78;17359.53;5019807;28;20739;-59
2022/04/24 05:51:30;;;;;;;13.03;11.73;;;8.40;99.90;;;-141.84;67.27;17365.63;5021184;28;20682;-60
2022/04/24 05:53:58;;;;;;;13.80;12.40;;;8.50;99.90;;;-141.84;67.16;17375.78;5020628;28;20747;-60
2022/04/24 05:56:26;;;;;;;12.63;10.70;;;8.50;99.90;;;-141.84;67.38;17361.56;5018708;28;20230;-60
2022/04/24 05:58:54;;;;;;;12.53;11.23;;;8.50;99.90;;;-141.84;67.49;17396.09;5018810;28;20222;-61
2022/04/24 06:01:22;;;;;;;13.17;11.87;;;8.50;99.90;;;-141.84;67.53;17363.59;5015330;28;20219;-60
2022/04/24 06:03:50;;;;;;;13.37;11.50;;;8.60;99.90;;;-141.84;67.27;17351.41;5029854;28;20314;-59
2022/04/24 06:06:18;;;;;;;13.17;11.80;;;8.60;99.90;;;-141.84;66.02;17385.94;5029656;28;20222;-60
2022/04/24 06:08:48;;;;;;;13.07;11.40;;;8.80;99.90;;;-141.84;65.62;17400.16;5020510;28;20813;-60
2022/04/24 06:11:17;;;;;;;14.53;11.27;;;8.90;99.90;;;-141.84;65.49;17408.28;5023707;28;20641;-58
2022/04/24 06:13:46;;;;;;;12.13;10.83;;;8.90;99.90;;;-141.84;65.48;17402.19;5021409;28;20232;-61
2022/04/24 06:16:15;;;;;;;13.07;11.77;;;9.00;99.90;;;-141.84;65.02;17398.13;5024005;28;20580;-60
2022/04/24 06:18:43;;;;;;;13.60;11.40;;;9.00;99.90;;;-141.84;64.58;17422.50;5022071;28;20256;-60
2022/04/24 06:21:11;;;;;;;12.87;11.57;;;9.10;99.90;;;-141.84;64.79;17418.44;5032769;28;20212;-59
2022/04/24 06:23:38;;;;;;;14.67;12.30;;;9.20;99.90;;;-141.84;65.04;17420.47;5031665;28;20745;-60
2022/04/24 06:26:08;;;;;;;12.57;11.27;;;9.20;99.90;;;-141.84;64.36;17436.72;5022604;28;20428;-59
2022/04/24 06:28:36;;;;;;;13.10;11.80;;;9.30;99.90;;;-141.84;64.03;17448.91;5025576;28;20744;-60
2022/04/24 06:31:04;;;;;;;13.03;11.50;;;9.40;99.90;;;-141.84;63.51;17438.75;5029387;28;20323;-59
2022/04/24 06:33:32;;;;;;;14.63;13.23;;;9.40;99.90;;;-141.84;62.62;17438.75;5027071;28;20360;-58
2022/04/24 06:36:02;;;;;;;13.53;12.13;;;9.50;99.90;;;-141.84;62.38;17448.91;5028065;28;20289;-60
2022/04/24 06:38:30;;;;;;;14.23;11.83;;;9.60;99.90;;;-141.84;61.48;17485.44;5027764;28;20300;-59
2022/04/24 06:40:58;;;;;;;14.80;12.93;;;9.70;99.90;;;-141.84;60.92;17526.06;5031888;28;20688;-60
2022/04/24 06:43:27;;;;;;;13.53;12.23;;;9.80;99.90;;;-141.84;60.72;17493.56;5030182;28;20242;-60
2022/04/24 06:45:55;;;;;;;14.03;12.37;;;9.90;99.90;;;-141.84;60.28;17509.81;5031690;28;20829;-59
2022/04/24 06:48:23;;;;;;;13.60;12.10;;;10.00;99.90;;;-141.84;60.11;17522.00;5027784;28;20293;-59
2022/04/24 06:50:51;;;;;;;13.93;12.43;;;10.00;99.90;;;-141.84;59.10;17542.31;5028415;28;20297;-60
2022/04/24 06:53:21;;;;;;;14.20;12.80;;;10.20;99.90;;;-141.84;58.48;17580.91;5021028;28;20231;-60
2022/04/24 06:55:52;;;;;;;13.80;12.40;;;10.40;99.90;;;-141.84;57.92;17558.56;5022880;28;20308;-60
2022/04/24 06:58:20;;;;;;;15.00;13.43;;;10.60;99.90;;;-141.84;57.25;17556.53;5024702;28;20229;-61
2022/04/24 07:00:49;;;;;;;15.50;12.20;;;10.60;99.90;;;-141.84;56.86;17599.19;5020932;28;20222;-60
2022/04/24 07:03:35;;;;;;;14.40;12.73;;;10.90;99.90;;;-141.84;56.89;17599.19;5020724;28;20214;-59
2022/04/24 07:06:04;;;;;;;14.70;12.77;;;10.80;99.90;;;-141.84;57.20;17599.19;5020180;28;20332;-60
2022/04/24 07:08:33;;;;;;;14.57;12.97;;;10.80;99.90;;;-141.84;56.41;17627.63;5016033;28;20269;-60
2022/04/24 07:11:01;;;;;;;14.20;12.77;;;10.90;99.90;;;-141.84;56.39;17643.88;5017812;28;20313;-60
2022/04/24 07:13:30;;;;;;;13.97;12.57;;;11.10;99.90;;;-141.84;55.51;17672.31;5011195;28;20222;-60
2022/04/24 07:15:59;;;;;;;15.00;13.43;;;11.30;99.90;;;-141.84;54.57;17635.75;5017833;28;20230;-59
2022/04/24 07:18:28;;;;;;;14.97;13.10;;;11.60;99.90;;;-141.84;54.58;17633.72;5018878;28;20673;-62
2022/04/24 07:20:58;;;;;;;14.30;12.53;;;11.50;99.90;;;-141.84;53.58;17688.56;5022958;28;20210;-58
2022/04/24 07:23:26;;;;;;;14.03;12.53;;;11.80;99.90;;;-141.84;53.50;17706.84;5026628;28;20311;-60
2022/04/24 07:25:54;;;;;;;14.53;13.03;;;11.80;99.90;;;-141.84;53.29;17684.50;5031213;28;20633;-60
2022/04/24 07:28:22;;;;;;;14.53;12.80;;;11.90;99.90;;;-141.84;52.05;17737.31;5031017;28;20236;-59
2022/04/24 07:30:50;;;;;;;14.53;13.10;;;12.20;99.90;;;-141.84;51.46;17753.56;5031219;28;20228;-59
2022/04/24 07:33:20;;;;;;;14.43;12.93;;;12.30;99.90;;;-141.84;51.49;17751.53;5031479;28;20208;-60
2022/04/24 07:35:48;;;;;;;14.40;12.90;;;12.50;99.90;;;-141.84;51.11;17765.75;5031072;28;20221;-59
2022/04/24 07:38:16;;;;;;;14.90;13.40;;;12.50;99.90;;;-141.84;50.94;17773.88;5031113;28;20313;-59
2022/04/24 07:40:44;;;;;;;13.70;12.40;;;12.60;99.90;;;-141.84;50.90;17788.09;5030587;28;20745;-59
2022/04/24 07:43:13;;;;;;;14.70;13.13;;;12.70;99.90;;;-141.84;50.83;17808.41;5027199;28;20332;-61
2022/04/24 07:45:44;;;;;;;14.60;13.10;;;12.60;99.90;;;-141.84;50.33;17786.06;5030794;28;20301;-59
2022/04/24 07:48:13;;;;;;;15.30;13.70;;;12.70;99.90;;;-141.84;50.50;17790.13;5029409;28;20199;-60
2022/04/24 07:50:45;;;;;;;14.87;13.37;;;12.80;99.90;;;-141.84;50.14;17810.44;5021590;28;20225;-59
2022/04/24 07:53:14;;;;;;;15.18;13.60;;;13.00;99.90;;;-141.84;49.54;17826.69;5030589;28;20221;-60
2022/04/24 07:55:44;;;;;;;14.90;13.30;;;13.00;99.90;;;-141.84;49.39;17808.41;5029543;28;20709;-60
2022/04/24 07:58:13;;;;;;;15.37;13.77;;;13.10;99.90;;;-141.84;49.00;17869.34;5030390;28;20608;-62
2022/04/24 08:00:43;;;;;;;14.32;12.88;;;13.30;99.90;;;-141.84;48.90;17863.25;5030115;28;20231;-60
2022/04/24 08:03:13;;;;;;;13.93;12.57;;;13.40;99.90;;;-141.84;48.14;17895.75;5031478;28;20567;-59
2022/04/24 08:05:45;;;;;;;16.33;13.77;;;13.60;99.90;;;-141.84;47.18;17895.75;5023618;28;20591;-59
2022/04/24 08:08:16;;;;;;;13.88;12.48;;;13.80;99.90;;;-141.84;47.67;17895.75;5028057;28;20225;-60
2022/04/24 08:10:47;;;;;;;14.43;13.02;;;13.70;99.90;;;-141.84;47.27;17914.03;5020377;28;20333;-60
2022/04/24 08:13:16;;;;;;;13.52;12.27;;;13.80;99.90;;;-141.84;47.40;17926.25;5023838;28;20244;-61
2022/04/24 08:15:45;;;;;;;13.27;11.97;;;13.90;99.90;;;-141.84;47.11;17905.91;5020942;28;20290;-60
2022/04/24 08:18:14;;;;;;;13.70;12.40;;;13.90;99.90;;;-141.84;47.07;17928.28;5011503;28;20198;-62
2022/04/24 08:20:44;;;;;;;14.43;13.02;;;14.00;99.90;;;-141.84;47.54;17918.09;5009976;28;20226;-63
2022/04/24 08:23:15;;;;;;;14.57;13.07;;;14.00;99.90;;;-141.84;47.74;17918.09;5010222;28;20293;-61
2022/04/24 08:25:43;;;;;;;15.03;13.40;;;13.90;99.90;;;-141.84;48.12;17905.91;5010177;28;20230;-61
2022/04/24 08:28:13;;;;;;;14.00;12.70;;;13.80;99.90;;;-141.84;48.29;17881.53;5010370;28;20257;-63
2022/04/24 08:30:43;;;;;;;14.95;13.43;;;13.80;99.90;;;-141.84;48.25;17905.91;5009988;28;20256;-60
2022/04/24 08:33:12;;;;;;;13.30;12.10;;;13.80;99.90;;;-141.84;47.43;17897.78;5010496;28;20533;-63
2022/04/24 08:35:42;;;;;;;13.63;12.23;;;14.00;99.90;;;-141.84;47.23;17926.25;5018228;28;20309;-61
2022/04/24 08:38:10;;;;;;;13.32;11.90;;;14.10;99.90;;;-141.84;46.99;17926.25;5021875;28;20690;-63
2022/04/24 08:40:38;;;;;;;12.90;11.60;;;14.10;99.90;;;-141.84;46.66;17977.03;5023980;28;20310;-59
2022/04/24 08:43:06;;;;;;;13.73;12.43;;;14.10;99.90;;;-141.84;46.55;17958.75;5031002;28;20725;-60
2022/04/24 08:45:34;;;;;;;13.52;12.23;;;14.10;99.90;;;-141.84;46.38;17987.19;5031283;28;20201;-60
2022/04/24 08:48:04;;;;;;;14.02;12.32;;;14.20;99.90;;;-141.84;46.43;17966.88;5031565;28;20202;-61
2022/04/24 08:50:33;;;;;;;13.10;11.68;;;14.20;99.90;;;-141.84;45.93;17960.78;5031208;28;20249;-62
2022/04/24 08:53:09;;;;;;;13.25;11.95;;;14.30;99.90;;;-141.84;45.55;18025.78;5026897;28;20225;-63
2022/04/24 08:55:37;;;;;;;12.45;11.25;;;14.40;99.90;;;-141.84;44.97;18050.16;5015083;28;20283;-61
2022/04/24 08:58:05;;;;;;;12.27;11.07;;;14.50;99.90;;;-141.84;44.74;18011.56;5021870;28;20237;-62
2022/04/24 09:00:33;;;;;;;12.00;10.80;;;14.60;99.90;;;-141.84;43.94;18074.53;5031767;28;20210;-60
2022/04/24 09:03:01;;;;;;;11.70;10.50;;;14.70;99.90;;;-141.84;43.74;18062.34;5031987;28;20242;-61
2022/04/24 09:05:30;;;;;;;12.50;10.68;;;14.70;99.90;;;-141.84;45.00;18029.84;5031323;28;20259;-62
2022/04/24 09:08:11;;;;;;;12.88;11.00;;;14.50;99.90;;;-141.84;44.67;18035.94;5034895;28;20224;-62
2022/04/24 09:11:00;;;;;;;11.95;10.85;;;14.60;99.90;;;-141.84;45.14;18033.91;5027177;28;20585;-61
2022/04/24 09:13:31;;;;;;;12.35;10.48;;;14.50;99.90;;;-141.84;44.92;18021.72;5035266;28;20309;-59
2022/04/24 09:16:03;;;;;;;11.98;9.80;;;14.50;99.90;;;-141.84;44.23;18058.28;5035369;28;20748;-60
2022/04/24 09:18:41;;;;;;;10.70;9.38;;;14.60;99.90;;;-141.84;44.19;18076.56;5035839;28;20758;-59
2022/04/24 09:21:13;;;;;;;10.80;9.80;;;14.60;99.90;;;-141.84;44.54;18052.19;5037678;28;20210;-60
2022/04/24 09:23:43;;;;;;;10.88;9.85;;;14.70;99.90;;;-141.84;43.93;18074.53;5035831;28;20317;-60
2022/04/24 09:26:16;;;;;;;10.80;9.27;;;14.70;99.90;;;-141.84;42.29;18098.91;5035216;28;20636;-60
2022/04/24 09:28:45;;;;;;;9.93;8.05;;;14.70;99.90;;;-141.84;42.51;18094.84;5034814;28;20264;-60
2022/04/24 09:31:13;;;;;;;9.95;8.45;;;14.60;99.90;;;-141.84;42.28;18117.19;5035177;28;20313;-60
2022/04/24 09:33:44;;;;;;;8.60;7.85;;;14.60;99.90;;;-141.84;41.94;18133.44;5034883;28;20293;-61
2022/04/24 09:36:14;;;;;;;9.48;8.57;;;14.50;99.90;;;-141.84;41.72;18139.53;5018282;28;20195;-60
2022/04/24 09:38:45;;;;;;;9.35;8.32;;;14.60;99.90;;;-141.84;41.94;18157.81;5027146;28;20670;-61
2022/04/24 09:41:20;;;;;;;9.23;8.27;;;14.60;99.90;;;-141.84;42.36;18143.59;5030838;28;20963;-61
2022/04/24 09:43:48;;;;;;;8.73;7.93;;;14.40;99.90;;;-141.84;42.11;18125.31;5034060;28;20798;-61
2022/04/24 09:46:26;;;;;;;9.38;8.30;;;14.40;99.90;;;-141.84;42.35;18139.53;5031904;28;20222;-61
2022/04/24 09:48:58;;;;;;;9.50;8.50;;;14.50;99.90;;;-141.84;43.00;18127.34;5031753;28;20313;-60
2022/04/24 09:51:29;;;;;;;9.10;8.20;;;14.30;99.90;;;-141.84;44.28;18056.25;5034685;28;20284;-61
2022/04/24 09:54:01;;;;;;;9.95;7.75;;;14.30;99.90;;;-141.84;45.78;17995.31;5034886;28;20289;-59
2022/04/24 09:56:29;;;;;;;9.50;8.60;;;14.20;99.90;;;-141.84;45.80;18013.59;5034455;28;20225;-62
2022/04/24 09:58:58;;;;;;;8.68;7.82;;;14.10;99.90;;;-141.84;45.77;18001.41;5034034;28;20225;-61
2022/04/24 10:01:27;;;;;;;9.02;8.20;;;14.10;99.90;;;-141.84;46.15;17993.28;5034253;28;20236;-59
2022/04/24 10:03:57;;;;;;;9.13;8.30;;;14.00;99.90;;;-141.84;45.75;17991.25;5033753;28;20225;-60
2022/04/24 10:06:26;;;;;;;9.18;7.95;;;14.00;99.90;;;-141.84;45.42;18001.41;5032276;28;20198;-59